Time,TemperatureF,DewpointF,PressureIn,WindDirection,WindDirectionDegrees,WindSpeedMPH,WindSpeedGustMPH,Humidity,HourlyPrecipIn,Conditions,Clouds,dailyrainin,SoftwareType,DateUTC
2013-01-29 00:01:00,38.5,38.0,29.95,ESE,103,5.0,10.0,98,0.00,,---,0.00,VWS V14.01,2013-01-29 05:01:00,
2013-01-29 00:16:00,38.6,38.1,29.95,ESE,115,3.0,9.0,98,0.00,,---,0.00,VWS V14.01,2013-01-29 05:16:00,
2013-01-29 00:31:00,38.8,38.3,29.95,ESE,116,4.0,9.0,98,0.00,,---,0.00,VWS V14.01,2013-01-29 05:31:00,
2013-01-29 00:46:00,39.0,38.5,29.94,ESE,112,5.0,10.0,98,0.00,,---,0.00,VWS V14.01,2013-01-29 05:46:00,
2013-01-29 01:01:00,39.2,38.7,29.93,ESE,111,5.0,9.0,98,0.00,,---,0.00,VWS V14.01,2013-01-29 06:01:00,
2013-01-29 01:16:00,39.5,39.0,29.92,East,89,3.0,9.0,98,0.01,,---,0.01,VWS V14.01,2013-01-29 06:16:00,
2013-01-29 01:31:00,39.7,39.2,29.91,ESE,104,1.0,11.0,98,0.03,,---,0.03,VWS V14.01,2013-01-29 06:31:00,
2013-01-29 01:46:00,39.6,39.1,29.92,ESE,109,8.0,8.0,98,0.07,,---,0.07,VWS V14.01,2013-01-29 06:46:00,
2013-01-29 02:01:00,43.7,43.2,29.89,SE,138,3.0,13.0,98,0.11,,---,0.11,VWS V14.01,2013-01-29 07:01:00,
2013-01-29 02:16:00,46.1,45.6,29.90,SSE,147,5.0,8.0,98,0.15,,---,0.15,VWS V14.01,2013-01-29 07:16:00,
2013-01-29 02:31:00,46.3,45.8,29.87,SSE,150,5.0,10.0,98,0.18,,---,0.19,VWS V14.01,2013-01-29 07:31:00,
2013-01-29 02:46:00,45.8,45.3,29.86,SE,136,4.0,10.0,98,0.19,,---,0.22,VWS V14.01,2013-01-29 07:46:00,
2013-01-29 03:01:00,46.4,45.9,29.86,SSE,163,4.0,7.0,98,0.18,,---,0.25,VWS V14.01,2013-01-29 08:01:00,
2013-01-29 03:16:00,47.8,47.3,29.85,SSW,200,4.0,9.0,98,0.16,,---,0.27,VWS V14.01,2013-01-29 08:16:00,
2013-01-29 03:31:00,49.0,48.5,29.84,SSE,163,5.0,14.0,98,0.15,,---,0.30,VWS V14.01,2013-01-29 08:31:00,
2013-01-29 03:46:00,50.2,49.7,29.83,SSW,195,10.0,15.0,98,0.13,,---,0.32,VWS V14.01,2013-01-29 08:46:00,
2013-01-29 04:01:00,51.1,50.6,29.82,South,180,5.0,11.0,98,0.11,,---,0.33,VWS V14.01,2013-01-29 09:01:00,
2013-01-29 04:16:00,51.7,51.2,29.81,SSW,200,7.0,14.0,98,0.09,,---,0.34,VWS V14.01,2013-01-29 09:16:00,
2013-01-29 04:31:00,52.3,51.8,29.80,South,191,6.0,14.0,98,0.07,,---,0.34,VWS V14.01,2013-01-29 09:31:00,
2013-01-29 04:46:00,52.5,52.0,29.80,SSW,198,7.0,16.0,98,0.04,,---,0.34,VWS V14.01,2013-01-29 09:46:00,
2013-01-29 05:01:00,53.1,52.5,29.79,South,172,4.0,13.0,98,0.02,,---,0.34,VWS V14.01,2013-01-29 10:01:00,
2013-01-29 05:16:00,53.4,52.8,29.78,SW,222,3.0,13.0,98,0.01,,---,0.34,VWS V14.01,2013-01-29 10:16:00,
2013-01-29 05:31:00,54.1,53.5,29.78,SSW,198,7.0,13.0,98,0.00,,---,0.34,VWS V14.01,2013-01-29 10:31:00,
2013-01-29 05:46:00,54.7,54.2,29.78,SSW,195,8.0,14.0,98,0.00,,---,0.34,VWS V14.01,2013-01-29 10:46:00,
2013-01-29 06:01:00,54.7,54.2,29.78,South,179,9.0,16.0,98,0.02,,---,0.36,VWS V14.01,2013-01-29 11:01:00,
2013-01-29 06:16:00,54.7,54.2,29.79,South,191,8.0,17.0,98,0.02,,---,0.36,VWS V14.01,2013-01-29 11:16:00,
2013-01-29 06:31:00,54.4,53.8,29.78,SSW,194,14.0,18.0,98,0.02,,---,0.36,VWS V14.01,2013-01-29 11:31:00,
2013-01-29 06:46:00,54.3,53.8,29.79,WSW,252,8.0,21.0,98,0.02,,---,0.36,VWS V14.01,2013-01-29 11:46:00,
2013-01-29 07:01:00,54.0,53.5,29.79,SSW,209,3.0,17.0,98,0.02,,---,0.36,VWS V14.01,2013-01-29 12:01:00,
2013-01-29 07:16:00,53.9,53.3,29.77,SSW,197,7.0,18.0,98,0.00,,---,0.36,VWS V14.01,2013-01-29 12:16:00,
2013-01-29 07:31:00,53.9,53.3,29.77,SSW,205,8.0,19.0,98,0.00,,---,0.36,VWS V14.01,2013-01-29 12:31:00,
2013-01-29 07:46:00,53.9,53.3,29.77,SSW,205,8.0,18.0,98,0.00,,---,0.36,VWS V14.01,2013-01-29 12:46:00,
2013-01-29 08:01:00,54.1,53.5,29.77,South,188,7.0,19.0,98,0.00,,---,0.36,VWS V14.01,2013-01-29 13:01:00,
2013-01-29 08:16:00,54.3,53.8,29.76,SW,236,8.0,22.0,98,0.00,,---,0.36,VWS V14.01,2013-01-29 13:16:00,
2013-01-29 08:31:00,54.5,54.0,29.77,SSE,162,10.0,19.0,98,0.00,,---,0.36,VWS V14.01,2013-01-29 13:31:00,
2013-01-29 08:46:00,54.6,53.8,29.76,SSW,196,10.0,18.0,97,0.00,,---,0.36,VWS V14.01,2013-01-29 13:46:00,
2013-01-29 09:01:00,54.8,54.0,29.76,SW,221,12.0,17.0,97,0.00,,---,0.36,VWS V14.01,2013-01-29 14:01:00,
2013-01-29 09:16:00,55.2,54.4,29.76,SSW,192,7.0,19.0,97,0.00,,---,0.36,VWS V14.01,2013-01-29 14:16:00,
2013-01-29 09:31:00,55.2,54.4,29.76,SSW,195,7.0,19.0,97,0.00,,---,0.36,VWS V14.01,2013-01-29 14:31:00,
2013-01-29 09:46:00,55.4,54.6,29.77,South,186,10.0,18.0,97,0.00,,---,0.36,VWS V14.01,2013-01-29 14:46:00,
2013-01-29 10:01:00,55.4,54.3,29.77,SSW,211,14.0,17.0,96,0.01,,---,0.37,VWS V14.01,2013-01-29 15:01:00,
2013-01-29 10:16:00,55.3,54.2,29.74,South,183,2.0,18.0,96,0.02,,---,0.38,VWS V14.01,2013-01-29 15:16:00,
2013-01-29 10:31:00,55.3,54.2,29.76,SSW,195,4.0,14.0,96,0.04,,---,0.40,VWS V14.01,2013-01-29 15:31:00,
2013-01-29 10:46:00,55.4,54.3,29.75,SW,216,1.0,16.0,96,0.05,,---,0.41,VWS V14.01,2013-01-29 15:46:00,
2013-01-29 11:01:00,55.7,54.6,29.75,South,172,4.0,21.0,96,0.06,,---,0.42,VWS V14.01,2013-01-29 16:01:00,
2013-01-29 11:16:00,55.6,54.5,29.75,SSW,192,11.0,18.0,96,0.06,,---,0.43,VWS V14.01,2013-01-29 16:16:00,
2013-01-29 11:31:00,55.8,54.7,29.75,SSW,211,8.0,19.0,96,0.07,,---,0.45,VWS V14.01,2013-01-29 16:31:00,
2013-01-29 11:46:00,56.0,54.9,29.75,SSW,198,8.0,19.0,96,0.06,,---,0.46,VWS V14.01,2013-01-29 16:46:00,
2013-01-29 12:01:00,56.0,54.9,29.75,SSW,198,9.0,16.0,96,0.06,,---,0.47,VWS V14.01,2013-01-29 17:01:00,
2013-01-29 12:16:00,56.0,54.9,29.74,SW,225,6.0,18.0,96,0.05,,---,0.47,VWS V14.01,2013-01-29 17:16:00,
2013-01-29 12:31:00,56.1,55.0,29.73,SSW,194,7.0,16.0,96,0.05,,---,0.48,VWS V14.01,2013-01-29 17:31:00,
2013-01-29 12:46:00,56.2,55.1,29.72,WSW,239,9.0,15.0,96,0.03,,---,0.48,VWS V14.01,2013-01-29 17:46:00,
2013-01-29 13:01:00,56.3,55.2,29.71,South,174,5.0,17.0,96,0.03,,---,0.49,VWS V14.01,2013-01-29 18:01:00,
2013-01-29 13:16:00,56.2,55.1,29.70,South,186,6.0,12.0,96,0.03,,---,0.50,VWS V14.01,2013-01-29 18:16:00,
2013-01-29 13:31:00,56.3,55.2,29.69,SW,215,4.0,16.0,96,0.05,,---,0.52,VWS V14.01,2013-01-29 18:31:00,
2013-01-29 13:46:00,56.3,55.2,29.69,South,175,9.0,12.0,96,0.06,,---,0.54,VWS V14.01,2013-01-29 18:46:00,
2013-01-29 14:01:00,56.6,55.5,29.68,SSW,202,6.0,15.0,96,0.08,,---,0.56,VWS V14.01,2013-01-29 19:01:00,
2013-01-29 14:16:00,56.7,55.6,29.67,SSW,193,2.0,15.0,96,0.09,,---,0.58,VWS V14.01,2013-01-29 19:16:00,
2013-01-29 14:31:00,56.7,55.6,29.66,SSW,194,6.0,14.0,96,0.09,,---,0.59,VWS V14.01,2013-01-29 19:31:00,
2013-01-29 14:46:00,56.8,55.7,29.65,SSW,209,15.0,15.0,96,0.09,,---,0.61,VWS V14.01,2013-01-29 19:46:00,
2013-01-29 15:01:00,56.9,55.5,29.65,SW,220,3.0,15.0,95,0.08,,---,0.62,VWS V14.01,2013-01-29 20:01:00,
2013-01-29 15:16:00,57.0,55.6,29.64,SSW,198,7.0,18.0,95,0.08,,---,0.64,VWS V14.01,2013-01-29 20:16:00,
2013-01-29 15:31:00,57.0,55.6,29.64,SSW,206,6.0,15.0,95,0.07,,---,0.65,VWS V14.01,2013-01-29 20:31:00,
2013-01-29 15:46:00,57.0,55.3,29.63,SE,136,5.0,16.0,94,0.07,,---,0.66,VWS V14.01,2013-01-29 20:46:00,
2013-01-29 16:01:00,56.8,55.1,29.63,South,172,3.0,10.0,94,0.06,,---,0.67,VWS V14.01,2013-01-29 21:01:00,
2013-01-29 16:16:00,56.6,55.2,29.62,South,190,1.0,14.0,95,0.06,,---,0.68,VWS V14.01,2013-01-29 21:16:00,
2013-01-29 16:31:00,56.7,55.3,29.62,SSW,196,3.0,15.0,95,0.05,,---,0.69,VWS V14.01,2013-01-29 21:31:00,
2013-01-29 16:46:00,56.7,55.0,29.62,SSW,201,7.0,16.0,94,0.05,,---,0.70,VWS V14.01,2013-01-29 21:46:00,
2013-01-29 17:01:00,56.7,55.3,29.61,SW,226,15.0,15.0,95,0.05,,---,0.71,VWS V14.01,2013-01-29 22:01:00,
2013-01-29 17:16:00,56.5,55.1,29.61,South,191,4.0,16.0,95,0.05,,---,0.72,VWS V14.01,2013-01-29 22:16:00,
2013-01-29 17:31:00,56.3,54.9,29.61,SSW,193,11.0,19.0,95,0.04,,---,0.72,VWS V14.01,2013-01-29 22:31:00,
2013-01-29 17:46:00,56.3,54.9,29.59,SSW,192,7.0,14.0,95,0.04,,---,0.73,VWS V14.01,2013-01-29 22:46:00,
2013-01-29 18:01:00,56.5,55.1,29.59,SSW,202,7.0,15.0,95,0.03,,---,0.73,VWS V14.01,2013-01-29 23:01:00,
2013-01-29 18:16:00,56.6,54.9,29.58,SW,217,8.0,16.0,94,0.02,,---,0.73,VWS V14.01,2013-01-29 23:16:00,
2013-01-29 18:31:00,56.8,54.8,29.57,South,188,4.0,16.0,93,0.02,,---,0.74,VWS V14.01,2013-01-29 23:31:00,
2013-01-29 18:46:00,57.0,55.0,29.57,South,180,9.0,21.0,93,0.02,,---,0.74,VWS V14.01,2013-01-29 23:46:00,
2013-01-29 19:01:00,57.0,55.0,29.56,ESE,123,4.0,19.0,93,0.01,,---,0.74,VWS V14.01,2013-01-30 00:01:00,
2013-01-29 19:16:00,56.7,54.7,29.54,South,169,4.0,19.0,93,0.01,,---,0.74,VWS V14.01,2013-01-30 00:16:00,
2013-01-29 19:31:00,56.7,55.0,29.53,SSE,157,8.0,21.0,94,0.02,,---,0.75,VWS V14.01,2013-01-30 00:31:00,
2013-01-29 19:46:00,57.0,55.0,29.52,SSW,196,7.0,17.0,93,0.01,,---,0.75,VWS V14.01,2013-01-30 00:46:00,
2013-01-29 20:01:00,56.9,54.9,29.51,South,169,13.0,18.0,93,0.01,,---,0.75,VWS V14.01,2013-01-30 01:01:00,
2013-01-29 20:16:00,56.8,54.5,29.50,SE,144,7.0,15.0,92,0.01,,---,0.75,VWS V14.01,2013-01-30 01:16:00,
2013-01-29 20:31:00,56.8,54.2,29.49,South,180,6.0,21.0,91,0.01,,---,0.75,VWS V14.01,2013-01-30 01:31:00,
2013-01-29 20:46:00,57.1,54.5,29.47,South,190,5.0,21.0,91,0.00,,---,0.75,VWS V14.01,2013-01-30 01:46:00,
2013-01-29 21:01:00,57.3,54.4,29.46,SW,219,8.0,21.0,90,0.00,,---,0.75,VWS V14.01,2013-01-30 02:01:00,
2013-01-29 21:16:00,57.4,54.5,29.45,SSW,194,4.0,23.0,90,0.00,,---,0.75,VWS V14.01,2013-01-30 02:16:00,
2013-01-29 21:31:00,57.3,54.4,29.45,South,185,6.0,28.0,90,0.00,,---,0.75,VWS V14.01,2013-01-30 02:31:00,
2013-01-29 21:46:00,55.9,53.9,29.49,WSW,254,9.0,23.0,93,0.01,,---,0.76,VWS V14.01,2013-01-30 02:46:00,
2013-01-29 22:01:00,53.8,52.1,29.48,West,263,11.0,15.0,94,0.02,,---,0.77,VWS V14.01,2013-01-30 03:01:00,
2013-01-29 22:16:00,52.9,51.5,29.47,West,270,6.0,13.0,95,0.03,,---,0.78,VWS V14.01,2013-01-30 03:16:00,
2013-01-29 22:31:00,52.5,51.1,29.47,WSW,248,3.0,7.0,95,0.05,,---,0.80,VWS V14.01,2013-01-30 03:31:00,
2013-01-29 22:46:00,52.2,51.1,29.45,WSW,248,2.0,6.0,96,0.05,,---,0.80,VWS V14.01,2013-01-30 03:46:00,
2013-01-29 23:01:00,51.9,50.8,29.45,WSW,248,2.0,4.0,96,0.05,,---,0.81,VWS V14.01,2013-01-30 04:01:00,
2013-01-29 23:16:00,51.8,50.7,29.42,WSW,258,0.0,5.0,96,0.05,,---,0.82,VWS V14.01,2013-01-30 04:16:00,
2013-01-29 23:31:00,51.6,50.5,29.42,WSW,258,1.0,3.0,96,0.05,,---,0.83,VWS V14.01,2013-01-30 04:31:00,
2013-01-29 23:46:00,51.5,50.7,29.41,WSW,258,0.0,3.0,97,0.04,,---,0.84,VWS V14.01,2013-01-30 04:46:00,